OCJ weather

Boscobel Aerodrome
Ocho Rios, Saint Mary, Jamaica

Public forecast

Using degrees Celsius for public forecast. Weather courtesy of forecast.io.

METAR (pilot weather report)

Closest report is Norman Manley International Airport, 30.0 nm (55.5 km) SSE. Retrieved 2019/03/26 02:00 UTC (21 minutes ago):

MKJP 260200Z VRB02KT 9999 FEW018 27/20 Q1014

TAF (pilot weather forecast)

Forecast is more than 12 hours old.

Closest forecast is Norman Manley International Airport, 30.0 nm (55.5 km) SSE. Retrieved 2019/03/25 00:24 UTC (1 day ago):

TAF MKJP 252315Z 2600/2624 17013KT 9999 FEW024 BECMG 2601/2603 34005KT TEMPO 2609/2613 SCT020 SCT038 BECMG 2614/2616 19008KT TEMPO 2618/2622 8000 SHRA BKN018 FEW022CB